Time;durP1;ratioP1;P1;durP2;ratioP2;P2;SDS_P1;SDS_P2;PMS_P1;PMS_P2;Temp;Humidity;BMP_temperature;BMP_pressure;BME280_temperature;BME280_humidity;BME280_pressure;Samples;Min_cycle;Max_cycle;Signal;HPM_P1;HPM_P2
2023/08/11 00:00:02;;;;;;;;;;;20.50;67.00;;;;;;5060045;28;889;-73
2023/08/11 00:02:29;;;;;;;;;;;20.50;67.00;;;;;;5062816;28;839;-73
2023/08/11 00:04:55;;;;;;;;;;;20.50;67.00;;;;;;5058207;28;1262;-73
2023/08/11 00:07:20;;;;;;;;;;;20.50;67.00;;;;;;5059087;28;879;-71
2023/08/11 00:09:45;;;;;;;;;;;20.50;67.10;;;;;;5056256;28;1193;-70
2023/08/11 00:12:11;;;;;;;;;;;20.50;67.10;;;;;;5060336;28;1022;-71
2023/08/11 00:14:36;;;;;;;;;;;20.50;67.10;;;;;;5062460;28;865;-74
2023/08/11 00:17:02;;;;;;;;;;;20.50;67.10;;;;;;5056655;28;1947;-73
2023/08/11 00:19:29;;;;;;;;;;;20.50;67.10;;;;;;5057906;28;1307;-73
2023/08/11 00:21:56;;;;;;;;;;;20.50;67.20;;;;;;5059194;28;1318;-75
2023/08/11 00:24:21;;;;;;;;;;;20.50;67.20;;;;;;5062150;28;847;-72
2023/08/11 00:26:47;;;;;;;;;;;20.50;67.20;;;;;;5064667;28;1331;-72
2023/08/11 00:29:12;;;;;;;;;;;20.50;67.20;;;;;;5061187;28;1022;-69
2023/08/11 00:31:38;;;;;;;;;;;20.50;67.20;;;;;;5062067;28;776;-71
2023/08/11 00:34:03;;;;;;;;;;;20.50;67.30;;;;;;5064449;28;931;-68
2023/08/11 00:36:29;;;;;;;;;;;20.50;67.20;;;;;;5060650;28;1259;-68
2023/08/11 00:39:00;;;;;;;;;;;20.50;67.20;;;;;;5066321;28;1914;-69
2023/08/11 00:41:28;;;;;;;;;;;20.50;68.00;;;;;;5063929;28;860;-68
2023/08/11 00:43:53;;;;;;;;;;;20.50;67.20;;;;;;5063589;28;773;-68
2023/08/11 00:46:19;;;;;;;;;;;20.50;67.20;;;;;;5058116;28;1353;-68
2023/08/11 00:48:50;;;;;;;;;;;20.50;67.30;;;;;;5064328;28;839;-68
2023/08/11 00:51:16;;;;;;;;;;;20.50;67.30;;;;;;5063282;28;898;-68
2023/08/11 00:53:41;;;;;;;;;;;20.50;67.30;;;;;;5065974;28;804;-69
2023/08/11 00:56:07;;;;;;;;;;;20.50;67.30;;;;;;5069507;28;1260;-69
2023/08/11 00:58:32;;;;;;;;;;;20.50;67.30;;;;;;5065434;28;1965;-67
2023/08/11 01:00:58;;;;;;;;;;;20.50;67.40;;;;;;5067595;28;871;-69
2023/08/11 01:03:24;;;;;;;;;;;20.50;67.40;;;;;;5063666;28;821;-69
2023/08/11 01:05:52;;;;;;;;;;;20.50;67.40;;;;;;5061906;28;1358;-69
2023/08/11 01:08:18;;;;;;;;;;;20.50;67.40;;;;;;5062153;28;898;-70
2023/08/11 01:10:46;;;;;;;;;;;20.50;67.40;;;;;;5062319;28;809;-69
2023/08/11 01:13:18;;;;;;;;;;;20.50;67.40;;;;;;5062808;28;875;-69
2023/08/11 01:15:48;;;;;;;;;;;20.50;67.40;;;;;;5060310;28;2256;-70
2023/08/11 01:18:14;;;;;;;;;;;20.50;67.40;;;;;;5058295;28;1945;-70
2023/08/11 01:20:39;;;;;;;;;;;20.50;67.50;;;;;;5059151;28;821;-68
2023/08/11 01:23:05;;;;;;;;;;;20.50;67.50;;;;;;5060285;28;850;-69
2023/08/11 01:25:30;;;;;;;;;;;20.50;67.50;;;;;;5061532;28;1272;-69
2023/08/11 01:27:56;;;;;;;;;;;20.50;67.50;;;;;;5065370;28;1328;-72
2023/08/11 01:30:22;;;;;;;;;;;20.50;67.60;;;;;;5062002;28;813;-69
2023/08/11 01:32:48;;;;;;;;;;;20.50;67.50;;;;;;5059741;28;888;-67
2023/08/11 01:35:13;;;;;;;;;;;20.50;67.50;;;;;;5062644;28;1290;-66
2023/08/11 01:37:38;;;;;;;;;;;20.50;68.30;;;;;;5069718;28;1952;-69
2023/08/11 01:40:10;;;;;;;;;;;20.50;67.50;;;;;;5061548;28;971;-69
2023/08/11 01:42:39;;;;;;;;;;;20.50;67.50;;;;;;5061391;28;868;-69
2023/08/11 01:45:06;;;;;;;;;;;20.50;67.60;;;;;;5065517;28;1261;-69
2023/08/11 01:47:31;;;;;;;;;;;20.50;67.60;;;;;;5068436;28;843;-68
2023/08/11 01:49:56;;;;;;;;;;;20.50;67.60;;;;;;5065397;28;891;-68
2023/08/11 01:52:22;;;;;;;;;;;20.50;67.60;;;;;;5044605;28;923;-70
2023/08/11 01:54:47;;;;;;;;;;;20.50;67.60;;;;;;5060488;28;859;-72
2023/08/11 01:57:13;;;;;;;;;;;20.50;67.70;;;;;;5061171;28;1989;-71
2023/08/11 01:59:38;;;;;;;;;;;20.50;67.60;;;;;;5059244;28;874;-71
2023/08/11 02:02:04;;;;;;;;;;;20.50;67.60;;;;;;5061034;28;1345;-70
2023/08/11 02:04:29;;;;;;;;;;;20.50;67.70;;;;;;5060878;28;926;-68
2023/08/11 02:06:55;;;;;;;;;;;20.50;67.60;;;;;;5058553;28;1300;-69
2023/08/11 02:09:20;;;;;;;;;;;20.50;67.70;;;;;;5056483;28;883;-69
2023/08/11 02:11:45;;;;;;;;;;;20.50;67.70;;;;;;5059351;28;1172;-71
2023/08/11 02:14:11;;;;;;;;;;;20.50;67.70;;;;;;5057882;28;951;-69
2023/08/11 02:16:37;;;;;;;;;;;20.50;67.70;;;;;;5058900;28;1925;-69
2023/08/11 02:19:04;;;;;;;;;;;20.50;67.80;;;;;;5060905;28;1322;-69
2023/08/11 02:21:30;;;;;;;;;;;20.50;67.80;;;;;;5060970;28;875;-71
2023/08/11 02:23:55;;;;;;;;;;;20.50;67.80;;;;;;5058916;28;863;-69
2023/08/11 02:26:22;;;;;;;;;;;20.50;67.70;;;;;;5062364;28;1315;-69
2023/08/11 02:28:47;;;;;;;;;;;20.50;67.80;;;;;;5055798;28;1313;-71
2023/08/11 02:31:13;;;;;;;;;;;20.50;67.80;;;;;;5056108;28;867;-70
2023/08/11 02:33:39;;;;;;;;;;;20.50;67.80;;;;;;5062449;28;1225;-70
2023/08/11 02:36:04;;;;;;;;;;;20.50;67.80;;;;;;5061224;28;1417;-70
2023/08/11 02:38:30;;;;;;;;;;;20.50;67.80;;;;;;5058819;28;1890;-70
2023/08/11 02:40:56;;;;;;;;;;;20.50;67.80;;;;;;5061689;28;1441;-70
2023/08/11 02:43:21;;;;;;;;;;;20.50;67.80;;;;;;5060966;28;1532;-71
2023/08/11 02:45:47;;;;;;;;;;;20.50;67.80;;;;;;5069548;28;1510;-69
2023/08/11 02:48:12;;;;;;;;;;;20.50;67.80;;;;;;5059677;28;800;-69
2023/08/11 02:50:38;;;;;;;;;;;20.50;67.80;;;;;;5064694;28;1593;-69
2023/08/11 02:53:04;;;;;;;;;;;20.50;67.80;;;;;;5060200;28;860;-68
2023/08/11 02:55:30;;;;;;;;;;;20.50;67.90;;;;;;5059437;28;1213;-69
2023/08/11 02:57:55;;;;;;;;;;;20.50;67.90;;;;;;5060163;28;2239;-68
2023/08/11 03:00:21;;;;;;;;;;;20.50;67.90;;;;;;5055942;28;849;-69
2023/08/11 03:02:46;;;;;;;;;;;20.50;67.90;;;;;;5059194;28;857;-69
2023/08/11 03:05:12;;;;;;;;;;;20.50;68.00;;;;;;5055558;28;1224;-69
2023/08/11 03:07:38;;;;;;;;;;;20.50;67.90;;;;;;5060739;28;874;-69
2023/08/11 03:10:04;;;;;;;;;;;20.50;67.90;;;;;;5058633;28;827;-68
2023/08/11 03:12:29;;;;;;;;;;;20.50;68.00;;;;;;5058879;28;805;-69
2023/08/11 03:14:55;;;;;;;;;;;20.50;68.00;;;;;;5056885;28;1213;-69
2023/08/11 03:17:21;;;;;;;;;;;20.50;68.00;;;;;;5060212;28;1962;-70
2023/08/11 03:19:46;;;;;;;;;;;20.50;68.00;;;;;;5057260;28;840;-69
2023/08/11 03:22:13;;;;;;;;;;;20.50;68.00;;;;;;5060148;28;1374;-69
2023/08/11 03:24:39;;;;;;;;;;;20.50;68.10;;;;;;5061789;28;843;-69
2023/08/11 03:27:05;;;;;;;;;;;20.50;68.10;;;;;;5060281;28;1313;-69
2023/08/11 03:29:31;;;;;;;;;;;20.50;68.10;;;;;;5056104;28;1482;-70
2023/08/11 03:31:56;;;;;;;;;;;20.50;68.10;;;;;;5057071;28;909;-70
2023/08/11 03:34:22;;;;;;;;;;;20.50;68.10;;;;;;5060545;28;784;-69
2023/08/11 03:36:47;;;;;;;;;;;20.50;68.10;;;;;;5057875;28;1906;-69
2023/08/11 03:39:13;;;;;;;;;;;20.50;68.10;;;;;;5055464;28;817;-69
2023/08/11 03:41:38;;;;;;;;;;;20.50;68.10;;;;;;5057838;28;899;-68
2023/08/11 03:44:04;;;;;;;;;;;20.50;68.10;;;;;;5061482;28;958;-70
2023/08/11 03:46:30;;;;;;;;;;;20.50;68.10;;;;;;5058425;28;1236;-70
2023/08/11 03:48:55;;;;;;;;;;;20.50;68.10;;;;;;5060391;28;855;-70
2023/08/11 03:51:21;;;;;;;;;;;20.50;68.10;;;;;;5059379;28;899;-69
2023/08/11 03:53:47;;;;;;;;;;;20.50;68.10;;;;;;5060456;28;1029;-70
2023/08/11 03:56:12;;;;;;;;;;;20.50;68.10;;;;;;5058628;28;1251;-72
2023/08/11 03:58:38;;;;;;;;;;;20.50;68.20;;;;;;5059033;28;1963;-69
2023/08/11 04:01:04;;;;;;;;;;;20.50;68.20;;;;;;5058744;28;851;-69
2023/08/11 04:03:31;;;;;;;;;;;20.50;68.20;;;;;;5057166;28;883;-69
2023/08/11 04:05:59;;;;;;;;;;;20.50;68.20;;;;;;5055731;28;1288;-69
2023/08/11 04:08:25;;;;;;;;;;;20.50;68.20;;;;;;5065656;28;880;-70
2023/08/11 04:10:51;;;;;;;;;;;20.50;68.20;;;;;;5066815;28;820;-69
2023/08/11 04:13:16;;;;;;;;;;;20.50;68.20;;;;;;5059010;28;924;-71
2023/08/11 04:15:42;;;;;;;;;;;20.50;68.20;;;;;;5054803;28;1302;-68
2023/08/11 04:18:08;;;;;;;;;;;20.50;68.20;;;;;;5053681;28;1965;-72
2023/08/11 04:20:33;;;;;;;;;;;20.50;68.30;;;;;;5061505;28;1285;-71
2023/08/11 04:22:59;;;;;;;;;;;20.50;69.00;;;;;;5058999;28;843;-74
2023/08/11 04:25:24;;;;;;;;;;;20.50;68.30;;;;;;5061043;28;1247;-72
2023/08/11 04:27:50;;;;;;;;;;;20.50;68.30;;;;;;5056839;28;943;-71
2023/08/11 04:30:15;;;;;;;;;;;20.50;68.30;;;;;;5056959;28;883;-73
2023/08/11 04:32:41;;;;;;;;;;;20.50;68.30;;;;;;5060982;28;794;-72
2023/08/11 04:35:07;;;;;;;;;;;20.50;68.30;;;;;;5067797;28;1340;-72
2023/08/11 04:37:33;;;;;;;;;;;20.50;68.30;;;;;;5058755;28;1955;-71
2023/08/11 04:39:59;;;;;;;;;;;20.50;68.30;;;;;;5055784;28;902;-74
2023/08/11 04:42:25;;;;;;;;;;;20.50;68.30;;;;;;5058378;28;883;-72
2023/08/11 04:44:50;;;;;;;;;;;20.50;68.30;;;;;;5059581;28;1562;-72
2023/08/11 04:47:16;;;;;;;;;;;20.50;68.40;;;;;;5054664;28;805;-73
2023/08/11 04:49:42;;;;;;;;;;;20.50;68.40;;;;;;5059482;28;835;-71
2023/08/11 04:52:08;;;;;;;;;;;20.50;68.40;;;;;;5059112;28;912;-71
2023/08/11 04:54:33;;;;;;;;;;;20.50;68.40;;;;;;5060742;28;931;-73
2023/08/11 04:56:59;;;;;;;;;;;20.50;68.40;;;;;;5058511;28;1906;-72
2023/08/11 04:59:24;;;;;;;;;;;20.50;68.40;;;;;;5057517;28;899;-74
2023/08/11 05:01:50;;;;;;;;;;;20.50;68.50;;;;;;5057897;28;913;-73
2023/08/11 05:04:15;;;;;;;;;;;20.50;68.40;;;;;;5056725;28;805;-72
2023/08/11 05:06:41;;;;;;;;;;;20.50;68.40;;;;;;5061974;28;1326;-72
2023/08/11 05:09:07;;;;;;;;;;;20.50;68.50;;;;;;5061761;28;1030;-71
2023/08/11 05:11:32;;;;;;;;;;;20.50;68.40;;;;;;5065146;28;825;-71
2023/08/11 05:13:57;;;;;;;;;;;20.50;68.40;;;;;;5059568;28;808;-72
2023/08/11 05:16:24;;;;;;;;;;;20.50;68.40;;;;;;5062529;28;1276;-73
2023/08/11 05:18:49;;;;;;;;;;;20.50;68.40;;;;;;5063822;28;1898;-73
2023/08/11 05:21:16;;;;;;;;;;;20.50;68.50;;;;;;5062041;28;1302;-71
2023/08/11 05:23:41;;;;;;;;;;;20.50;68.50;;;;;;5056894;28;903;-74
2023/08/11 05:26:07;;;;;;;;;;;20.50;68.50;;;;;;5061501;28;1268;-71
2023/08/11 05:28:32;;;;;;;;;;;20.50;68.50;;;;;;5061015;28;1018;-71
2023/08/11 05:30:58;;;;;;;;;;;20.50;68.50;;;;;;5060280;28;920;-72
2023/08/11 05:33:24;;;;;;;;;;;20.50;68.50;;;;;;5065472;28;866;-71
2023/08/11 05:35:50;;;;;;;;;;;20.50;68.50;;;;;;5049360;28;1323;-72
2023/08/11 05:38:17;;;;;;;;;;;20.50;68.30;;;;;;5059790;28;1902;-71
2023/08/11 05:40:42;;;;;;;;;;;20.50;67.10;;;;;;5061329;28;910;-70
2023/08/11 05:43:08;;;;;;;;;;;20.50;65.90;;;;;;5059048;28;816;-70
2023/08/11 05:45:33;;;;;;;;;;;20.50;66.80;;;;;;5060746;28;1343;-70
2023/08/11 05:47:59;;;;;;;;;;;20.50;66.40;;;;;;5060129;28;879;-70
2023/08/11 05:50:24;;;;;;;;;;;20.50;66.50;;;;;;5061068;28;802;-72
2023/08/11 05:52:50;;;;;;;;;;;20.40;66.30;;;;;;5059724;28;859;-70
2023/08/11 05:55:15;;;;;;;;;;;20.50;66.20;;;;;;5060125;28;1335;-70
2023/08/11 05:57:41;;;;;;;;;;;20.40;66.20;;;;;;5062603;28;1969;-71
2023/08/11 06:00:08;;;;;;;;;;;20.50;66.20;;;;;;5062747;28;890;-70
2023/08/11 06:02:34;;;;;;;;;;;20.50;66.20;;;;;;5054403;28;2080;-70
2023/08/11 06:04:59;;;;;;;;;;;20.50;66.20;;;;;;5060256;28;1360;-69
2023/08/11 06:07:25;;;;;;;;;;;20.50;66.20;;;;;;5054898;28;1206;-70
2023/08/11 06:09:50;;;;;;;;;;;20.50;66.10;;;;;;5058424;28;902;-72
2023/08/11 06:12:16;;;;;;;;;;;20.50;66.00;;;;;;5058200;28;938;-74
2023/08/11 06:14:41;;;;;;;;;;;20.50;66.00;;;;;;5058370;28;762;-75
2023/08/11 06:17:07;;;;;;;;;;;20.50;66.00;;;;;;5058009;28;1949;-73
2023/08/11 06:19:32;;;;;;;;;;;20.50;66.00;;;;;;5059326;28;1369;-74
2023/08/11 06:21:58;;;;;;;;;;;20.40;66.80;;;;;;5058490;28;1264;-74
2023/08/11 06:24:24;;;;;;;;;;;20.50;66.10;;;;;;5061139;28;971;-74
2023/08/11 06:26:49;;;;;;;;;;;20.50;66.00;;;;;;5061037;28;1373;-74
2023/08/11 06:29:15;;;;;;;;;;;20.40;66.00;;;;;;5060179;28;835;-75
2023/08/11 06:31:42;;;;;;;;;;;20.40;66.10;;;;;;5059156;28;1334;-69
2023/08/11 06:34:08;;;;;;;;;;;20.50;66.10;;;;;;5056270;28;819;-70
2023/08/11 06:36:34;;;;;;;;;;;20.50;66.10;;;;;;5055910;28;1263;-70
2023/08/11 06:38:59;;;;;;;;;;;20.40;66.10;;;;;;5058167;28;1977;-69
2023/08/11 06:41:24;;;;;;;;;;;20.40;66.00;;;;;;5062226;28;978;-73
2023/08/11 06:43:50;;;;;;;;;;;20.40;66.80;;;;;;5058360;28;886;-71
2023/08/11 06:46:15;;;;;;;;;;;20.40;66.00;;;;;;5060686;28;1252;-70
2023/08/11 06:48:41;;;;;;;;;;;20.40;66.10;;;;;;5056188;28;864;-71
2023/08/11 06:51:07;;;;;;;;;;;20.40;66.10;;;;;;5057924;28;826;-70
2023/08/11 06:53:32;;;;;;;;;;;20.40;66.20;;;;;;5055588;28;1882;-70
2023/08/11 06:55:58;;;;;;;;;;;20.40;66.20;;;;;;5061764;28;1947;-70
2023/08/11 06:58:23;;;;;;;;;;;20.40;66.20;;;;;;5058473;28;1977;-70
2023/08/11 07:00:49;;;;;;;;;;;20.40;66.20;;;;;;5059036;28;1305;-70
2023/08/11 07:03:14;;;;;;;;;;;20.40;66.20;;;;;;5060238;28;855;-67
2023/08/11 07:05:40;;;;;;;;;;;20.40;66.10;;;;;;5060045;28;1286;-67
2023/08/11 07:08:05;;;;;;;;;;;20.40;66.20;;;;;;5060307;28;1048;-67
2023/08/11 07:10:31;;;;;;;;;;;20.40;66.10;;;;;;5058330;28;836;-67
2023/08/11 07:12:57;;;;;;;;;;;20.50;66.20;;;;;;5058190;28;887;-67
2023/08/11 07:15:22;;;;;;;;;;;20.40;66.20;;;;;;5058696;28;1273;-68
2023/08/11 07:17:48;;;;;;;;;;;20.40;66.20;;;;;;5062038;28;1902;-68
2023/08/11 07:20:13;;;;;;;;;;;20.40;66.20;;;;;;5052900;28;1285;-67
2023/08/11 07:22:39;;;;;;;;;;;20.40;66.30;;;;;;5061802;28;1866;-67
2023/08/11 07:25:04;;;;;;;;;;;20.40;66.20;;;;;;5060552;28;1323;-68
2023/08/11 07:27:30;;;;;;;;;;;20.40;66.30;;;;;;5060202;28;1226;-67
2023/08/11 07:29:55;;;;;;;;;;;20.40;66.30;;;;;;5059405;28;918;-67
2023/08/11 07:32:20;;;;;;;;;;;20.40;66.30;;;;;;5057681;28;824;-70
2023/08/11 07:34:46;;;;;;;;;;;20.40;66.30;;;;;;5054017;28;878;-70
2023/08/11 07:37:11;;;;;;;;;;;20.40;66.20;;;;;;5058738;28;1969;-67
2023/08/11 07:39:37;;;;;;;;;;;20.40;66.10;;;;;;5058621;28;811;-68
2023/08/11 07:42:02;;;;;;;;;;;20.40;66.00;;;;;;5056846;28;855;-68
2023/08/11 07:44:37;;;;;;;;;;;20.40;66.00;;;;;;5056419;28;846;-68
2023/08/11 07:47:02;;;;;;;;;;;20.40;65.80;;;;;;5059934;28;1431;-68
2023/08/11 07:49:28;;;;;;;;;;;20.40;66.50;;;;;;5057569;28;1092;-69
2023/08/11 07:51:53;;;;;;;;;;;20.40;65.80;;;;;;5058464;28;801;-69
2023/08/11 07:54:19;;;;;;;;;;;20.40;65.90;;;;;;5056631;28;970;-69
2023/08/11 07:56:44;;;;;;;;;;;20.40;65.80;;;;;;5045254;28;1671;-69
2023/08/11 07:59:10;;;;;;;;;;;20.40;65.90;;;;;;5056335;28;1975;-69
2023/08/11 08:01:36;;;;;;;;;;;20.40;65.90;;;;;;5058068;28;844;-68
2023/08/11 08:04:02;;;;;;;;;;;20.40;66.60;;;;;;5066370;28;868;-68
2023/08/11 08:06:27;;;;;;;;;;;20.40;65.80;;;;;;5061655;28;1237;-69
2023/08/11 08:08:53;;;;;;;;;;;20.50;65.90;;;;;;5046627;28;1214;-69
2023/08/11 08:11:19;;;;;;;;;;;20.50;65.80;;;;;;5061541;28;1293;-69
2023/08/11 08:13:44;;;;;;;;;;;20.50;65.90;;;;;;5057393;28;768;-69
2023/08/11 08:16:10;;;;;;;;;;;20.50;65.90;;;;;;5059942;28;1266;-68
2023/08/11 08:18:35;;;;;;;;;;;20.50;65.80;;;;;;5056382;28;2028;-68
2023/08/11 08:21:01;;;;;;;;;;;20.50;65.70;;;;;;5058391;28;1061;-68
2023/08/11 08:23:26;;;;;;;;;;;20.50;65.70;;;;;;5059724;28;903;-68
2023/08/11 08:25:52;;;;;;;;;;;20.50;64.10;;;;;;5058400;28;1239;-68
2023/08/11 08:28:17;;;;;;;;;;;20.50;64.90;;;;;;5058219;28;942;-68
2023/08/11 08:30:43;;;;;;;;;;;20.50;64.90;;;;;;5058755;28;802;-69
2023/08/11 08:33:08;;;;;;;;;;;20.50;64.90;;;;;;5055805;28;874;-68
2023/08/11 08:35:34;;;;;;;;;;;20.50;64.40;;;;;;5056668;28;1238;-68
2023/08/11 08:37:59;;;;;;;;;;;20.50;64.90;;;;;;5055805;28;1905;-69
2023/08/11 08:40:25;;;;;;;;;;;20.50;64.90;;;;;;5051999;28;1335;-69
2023/08/11 08:42:51;;;;;;;;;;;20.60;64.00;;;;;;5061636;28;903;-70
2023/08/11 08:45:16;;;;;;;;;;;20.60;64.00;;;;;;5064057;28;1203;-69
2023/08/11 08:47:42;;;;;;;;;;;20.50;64.20;;;;;;5058335;28;843;-70
2023/08/11 08:50:08;;;;;;;;;;;20.60;64.20;;;;;;5059704;28;871;-67
2023/08/11 08:52:34;;;;;;;;;;;20.60;64.20;;;;;;5057407;28;885;-68
2023/08/11 08:55:00;;;;;;;;;;;20.60;64.20;;;;;;5063159;28;1314;-67
2023/08/11 08:57:25;;;;;;;;;;;20.60;64.40;;;;;;5047150;28;1902;-68
2023/08/11 08:59:51;;;;;;;;;;;20.60;64.50;;;;;;5059858;28;828;-68
2023/08/11 09:02:16;;;;;;;;;;;20.60;64.00;;;;;;5063719;28;800;-68
2023/08/11 09:04:42;;;;;;;;;;;20.60;64.10;;;;;;5061419;28;895;-68
2023/08/11 09:07:07;;;;;;;;;;;20.60;64.50;;;;;;5066703;28;1677;-68
2023/08/11 09:09:33;;;;;;;;;;;20.60;64.50;;;;;;5062440;28;827;-68
2023/08/11 09:11:59;;;;;;;;;;;20.60;65.00;;;;;;5062031;28;878;-69
2023/08/11 09:14:24;;;;;;;;;;;20.60;64.80;;;;;;5062435;28;931;-69
2023/08/11 09:16:51;;;;;;;;;;;20.60;64.60;;;;;;5062093;28;1271;-69
2023/08/11 09:19:17;;;;;;;;;;;20.60;64.40;;;;;;5062337;28;1367;-69
2023/08/11 09:21:46;;;;;;;;;;;20.70;63.60;;;;;;5057498;28;1388;-69
2023/08/11 09:24:12;;;;;;;;;;;20.70;64.00;;;;;;5061873;28;874;-69
2023/08/11 09:26:37;;;;;;;;;;;20.60;64.20;;;;;;5058524;28;1303;-68
2023/08/11 09:29:03;;;;;;;;;;;20.60;64.50;;;;;;5060377;28;907;-68
2023/08/11 09:31:29;;;;;;;;;;;20.60;64.50;;;;;;5068543;28;1190;-69
2023/08/11 09:33:54;;;;;;;;;;;20.60;64.60;;;;;;5070183;28;851;-69
2023/08/11 09:36:20;;;;;;;;;;;20.60;64.30;;;;;;5058545;28;1267;-69
2023/08/11 09:38:46;;;;;;;;;;;20.60;64.40;;;;;;5059554;28;1973;-69
2023/08/11 09:41:12;;;;;;;;;;;20.60;64.20;;;;;;5059652;28;879;-69
2023/08/11 09:43:37;;;;;;;;;;;20.60;64.30;;;;;;5059035;28;829;-70
2023/08/11 09:46:03;;;;;;;;;;;20.60;64.50;;;;;;5061004;28;1853;-70
2023/08/11 09:48:28;;;;;;;;;;;20.60;64.50;;;;;;5059741;28;1265;-69
2023/08/11 09:50:54;;;;;;;;;;;20.60;64.50;;;;;;5065345;28;2263;-69
2023/08/11 09:53:19;;;;;;;;;;;20.60;64.30;;;;;;5058888;28;1515;-70
2023/08/11 09:55:46;;;;;;;;;;;20.60;64.50;;;;;;5071014;28;1431;-69
2023/08/11 09:58:15;;;;;;;;;;;20.60;64.80;;;;;;5063599;28;1926;-70
2023/08/11 10:00:42;;;;;;;;;;;20.60;64.80;;;;;;5062036;28;1422;-71
2023/08/11 10:03:11;;;;;;;;;;;20.60;64.80;;;;;;5061779;28;1246;-69
2023/08/11 10:05:37;;;;;;;;;;;20.60;64.80;;;;;;5062941;28;1294;-69
2023/08/11 10:08:03;;;;;;;;;;;20.60;64.60;;;;;;5058866;28;950;-70
2023/08/11 10:10:28;;;;;;;;;;;20.70;64.80;;;;;;5058783;28;1263;-70
2023/08/11 10:12:58;;;;;;;;;;;20.60;64.50;;;;;;5055957;28;1017;-70
2023/08/11 10:15:24;;;;;;;;;;;20.70;64.50;;;;;;5062436;28;1317;-70
2023/08/11 10:17:52;;;;;;;;;;;20.60;64.30;;;;;;5059291;28;1906;-68
2023/08/11 10:20:17;;;;;;;;;;;20.70;64.70;;;;;;5059293;28;1256;-68
2023/08/11 10:22:43;;;;;;;;;;;20.60;64.70;;;;;;5059201;28;968;-69
2023/08/11 10:25:08;;;;;;;;;;;20.60;64.80;;;;;;5068390;28;1327;-69
2023/08/11 10:27:38;;;;;;;;;;;20.70;64.30;;;;;;5059819;28;1277;-69
2023/08/11 10:30:04;;;;;;;;;;;20.70;64.60;;;;;;5043482;28;1183;-69
2023/08/11 10:32:33;;;;;;;;;;;20.70;64.70;;;;;;5059775;28;1437;-69
2023/08/11 10:34:58;;;;;;;;;;;20.70;64.80;;;;;;5061655;28;1346;-69
2023/08/11 10:37:29;;;;;;;;;;;20.70;64.90;;;;;;5061751;28;1963;-69
2023/08/11 10:40:09;;;;;;;;;;;20.70;64.90;;;;;;5058345;28;801;-69
2023/08/11 10:42:40;;;;;;;;;;;20.70;64.40;;;;;;5060861;28;1083;-69
2023/08/11 10:45:12;;;;;;;;;;;20.70;64.40;;;;;;5058766;28;1275;-69
2023/08/11 10:47:39;;;;;;;;;;;20.70;64.30;;;;;;5059871;28;890;-69
2023/08/11 10:50:08;;;;;;;;;;;20.70;64.60;;;;;;5068051;28;1295;-69
2023/08/11 10:52:34;;;;;;;;;;;20.70;64.50;;;;;;5057724;28;859;-68
2023/08/11 10:55:02;;;;;;;;;;;20.70;64.40;;;;;;5060494;28;1258;-68
2023/08/11 10:57:30;;;;;;;;;;;20.70;64.40;;;;;;5061050;28;1902;-68
2023/08/11 10:59:56;;;;;;;;;;;20.70;64.50;;;;;;5060710;28;868;-69
2023/08/11 11:02:21;;;;;;;;;;;20.70;64.50;;;;;;5058020;28;927;-69
2023/08/11 11:04:46;;;;;;;;;;;20.70;64.60;;;;;;5061261;28;989;-69
2023/08/11 11:07:12;;;;;;;;;;;20.80;64.60;;;;;;5055888;28;1232;-68
2023/08/11 11:09:38;;;;;;;;;;;20.80;64.80;;;;;;5059950;28;820;-68
2023/08/11 11:12:04;;;;;;;;;;;20.80;65.40;;;;;;5059499;28;868;-70
2023/08/11 11:14:29;;;;;;;;;;;20.80;64.30;;;;;;5061213;28;828;-69
2023/08/11 11:16:58;;;;;;;;;;;20.80;64.00;;;;;;5060986;28;1271;-69
2023/08/11 11:19:23;;;;;;;;;;;20.80;64.40;;;;;;5057766;28;999;-68
2023/08/11 11:21:49;;;;;;;;;;;20.80;64.70;;;;;;5060438;28;1331;-69
2023/08/11 11:24:15;;;;;;;;;;;20.80;64.70;;;;;;5058232;28;888;-69
2023/08/11 11:26:42;;;;;;;;;;;20.80;64.70;;;;;;5058911;28;1253;-69
2023/08/11 11:29:07;;;;;;;;;;;20.80;64.80;;;;;;5057198;28;1370;-69
2023/08/11 11:31:33;;;;;;;;;;;20.80;64.60;;;;;;5060586;28;836;-69
2023/08/11 11:33:59;;;;;;;;;;;20.70;64.70;;;;;;5060845;28;919;-69
2023/08/11 11:36:25;;;;;;;;;;;20.70;64.70;;;;;;5058188;28;1322;-69
2023/08/11 11:38:51;;;;;;;;;;;20.80;64.70;;;;;;5058243;28;1910;-70
2023/08/11 11:41:17;;;;;;;;;;;20.80;64.90;;;;;;5060106;28;833;-70
2023/08/11 11:43:43;;;;;;;;;;;20.80;64.90;;;;;;5059658;28;867;-70
2023/08/11 11:46:15;;;;;;;;;;;20.80;65.10;;;;;;5059875;28;1279;-69
2023/08/11 11:48:47;;;;;;;;;;;20.80;65.20;;;;;;5057390;28;1292;-70
2023/08/11 11:51:12;;;;;;;;;;;20.80;65.20;;;;;;5058304;28;881;-69
2023/08/11 11:53:38;;;;;;;;;;;20.80;65.20;;;;;;5058361;28;855;-69
2023/08/11 11:56:04;;;;;;;;;;;20.80;65.20;;;;;;5057427;28;1366;-69
2023/08/11 11:58:30;;;;;;;;;;;20.80;65.20;;;;;;5056859;28;1969;-69
2023/08/11 12:00:55;;;;;;;;;;;20.80;64.90;;;;;;5060670;28;851;-69
2023/08/11 12:03:22;;;;;;;;;;;20.80;65.20;;;;;;5057736;28;860;-69
2023/08/11 12:05:47;;;;;;;;;;;20.80;65.20;;;;;;5059286;28;1345;-69
2023/08/11 12:08:19;;;;;;;;;;;20.80;65.40;;;;;;5053167;28;904;-70
2023/08/11 12:10:47;;;;;;;;;;;20.80;65.50;;;;;;5060361;28;916;-69
2023/08/11 12:13:13;;;;;;;;;;;20.80;65.50;;;;;;5057705;28;890;-70
2023/08/11 12:15:38;;;;;;;;;;;20.80;65.40;;;;;;5065584;28;1322;-69
2023/08/11 12:18:05;;;;;;;;;;;20.80;65.50;;;;;;5060455;28;1902;-70
2023/08/11 12:20:30;;;;;;;;;;;20.80;65.50;;;;;;5062107;28;1877;-69
2023/08/11 12:22:55;;;;;;;;;;;20.90;65.60;;;;;;5064372;28;1233;-70
2023/08/11 12:25:21;;;;;;;;;;;20.80;65.60;;;;;;5062631;28;1296;-69
2023/08/11 12:27:48;;;;;;;;;;;20.90;65.60;;;;;;5060901;28;1144;-69
2023/08/11 12:30:15;;;;;;;;;;;20.90;65.40;;;;;;5060722;28;868;-69
2023/08/11 12:32:40;;;;;;;;;;;20.90;65.00;;;;;;5059244;28;898;-69
2023/08/11 12:35:06;;;;;;;;;;;20.90;64.90;;;;;;5063432;28;1421;-69
2023/08/11 12:37:31;;;;;;;;;;;20.90;65.20;;;;;;5062472;28;1930;-69
2023/08/11 12:39:57;;;;;;;;;;;20.90;65.30;;;;;;5060465;28;879;-68
2023/08/11 12:42:22;;;;;;;;;;;20.90;65.40;;;;;;5059477;28;1466;-69
2023/08/11 12:44:48;;;;;;;;;;;20.90;65.40;;;;;;5059253;28;827;-69
2023/08/11 12:47:13;;;;;;;;;;;20.90;65.60;;;;;;5060975;28;1275;-69
2023/08/11 12:49:39;;;;;;;;;;;21.00;65.70;;;;;;5059443;28;820;-69
2023/08/11 12:52:04;;;;;;;;;;;21.00;65.50;;;;;;5061268;28;801;-69
2023/08/11 12:54:30;;;;;;;;;;;21.00;65.30;;;;;;5060499;28;819;-68
2023/08/11 12:56:55;;;;;;;;;;;21.00;65.40;;;;;;5062631;28;1361;-69
2023/08/11 12:59:21;;;;;;;;;;;21.00;66.10;;;;;;5062017;28;1906;-68
2023/08/11 13:01:46;;;;;;;;;;;21.00;65.80;;;;;;5059141;28;993;-68
2023/08/11 13:04:12;;;;;;;;;;;21.00;65.70;;;;;;5060897;28;854;-68
2023/08/11 13:06:37;;;;;;;;;;;21.10;65.10;;;;;;5057107;28;1259;-69
2023/08/11 13:09:03;;;;;;;;;;;21.10;65.10;;;;;;5056917;28;817;-69
2023/08/11 13:11:29;;;;;;;;;;;21.10;65.00;;;;;;5063951;28;868;-68
2023/08/11 13:13:54;;;;;;;;;;;21.10;65.30;;;;;;5059534;28;883;-69
2023/08/11 13:16:20;;;;;;;;;;;21.10;65.40;;;;;;5057755;28;1216;-69
2023/08/11 13:18:45;;;;;;;;;;;21.00;65.40;;;;;;5059194;28;1898;-68
2023/08/11 13:21:11;;;;;;;;;;;21.00;65.50;;;;;;5060232;28;904;-69
2023/08/11 13:23:36;;;;;;;;;;;21.00;65.50;;;;;;5059657;28;1010;-69
2023/08/11 13:26:02;;;;;;;;;;;21.00;65.80;;;;;;5057310;28;1288;-69
2023/08/11 13:28:28;;;;;;;;;;;21.00;65.90;;;;;;5057840;28;1389;-69
2023/08/11 13:30:53;;;;;;;;;;;21.00;65.20;;;;;;5061486;28;914;-69
2023/08/11 13:33:19;;;;;;;;;;;21.00;65.30;;;;;;5061455;28;874;-68
2023/08/11 13:35:47;;;;;;;;;;;21.00;65.40;;;;;;5059688;28;1351;-69
2023/08/11 13:38:14;;;;;;;;;;;21.00;65.50;;;;;;5061533;28;1926;-69
2023/08/11 13:40:40;;;;;;;;;;;21.00;65.70;;;;;;5062051;28;852;-69
2023/08/11 13:43:05;;;;;;;;;;;21.10;65.90;;;;;;5061374;28;1295;-68
2023/08/11 13:45:31;;;;;;;;;;;21.10;65.90;;;;;;5059134;28;1267;-69
2023/08/11 13:47:56;;;;;;;;;;;21.00;65.80;;;;;;5056638;28;812;-68
2023/08/11 13:50:22;;;;;;;;;;;21.10;65.80;;;;;;5060066;28;975;-69
2023/08/11 13:52:47;;;;;;;;;;;21.00;65.80;;;;;;5058551;28;2111;-68
2023/08/11 13:55:14;;;;;;;;;;;21.10;66.10;;;;;;5060448;28;1288;-69
2023/08/11 13:57:40;;;;;;;;;;;21.10;66.10;;;;;;5060767;28;1914;-69
2023/08/11 14:00:08;;;;;;;;;;;21.10;66.20;;;;;;5058290;28;895;-69
2023/08/11 14:02:34;;;;;;;;;;;21.10;65.80;;;;;;5068304;28;1032;-69
2023/08/11 14:04:59;;;;;;;;;;;21.10;65.80;;;;;;5068267;28;1285;-68
2023/08/11 14:07:25;;;;;;;;;;;21.10;65.80;;;;;;5057843;28;864;-67
2023/08/11 14:09:50;;;;;;;;;;;21.10;66.00;;;;;;5059749;28;1184;-68
2023/08/11 14:12:17;;;;;;;;;;;21.10;66.60;;;;;;5061866;28;982;-68
2023/08/11 14:14:43;;;;;;;;;;;21.10;65.80;;;;;;5062418;28;831;-68
2023/08/11 14:17:08;;;;;;;;;;;21.10;65.60;;;;;;5059208;28;1894;-69
2023/08/11 14:19:34;;;;;;;;;;;21.10;65.40;;;;;;5060696;28;1504;-69
2023/08/11 14:21:59;;;;;;;;;;;21.10;65.70;;;;;;5063728;28;1305;-68
2023/08/11 14:24:24;;;;;;;;;;;21.00;65.60;;;;;;5063925;28;866;-69
2023/08/11 14:26:50;;;;;;;;;;;21.10;65.80;;;;;;5057910;28;1302;-69